createdAt,value
2019-02-15T00:01:57.348Z,94.80
2019-02-15T00:04:27.520Z,94.90
2019-02-15T00:10:13.565Z,94.70
2019-02-15T00:12:43.937Z,94.90
2019-02-15T00:15:23.770Z,94.70
2019-02-15T00:17:55.290Z,94.80
2019-02-15T00:23:23.737Z,94.60
2019-02-15T00:25:57.323Z,94.60
2019-02-15T00:28:40.573Z,94.50
2019-02-15T00:31:19.879Z,94.80
2019-02-15T00:33:59.307Z,94.40
2019-02-15T00:36:45.736Z,94.40
2019-02-15T00:39:17.888Z,94.40
2019-02-15T00:42:03.099Z,94.50
2019-02-15T00:44:46.741Z,94.40
2019-02-15T00:47:37.057Z,94.50
2019-02-15T00:50:19.721Z,94.60
2019-02-15T00:52:58.723Z,94.50
2019-02-15T00:55:46.879Z,94.80
2019-02-15T00:58:20.214Z,94.40
2019-02-15T01:01:23.376Z,94.60
2019-02-15T01:04:22.328Z,94.40
2019-02-15T01:07:02.580Z,94.70
2019-02-15T01:09:59.066Z,94.40
2019-02-15T01:12:37.991Z,94.50
2019-02-15T01:15:11.243Z,94.50
2019-02-15T01:17:47.428Z,94.60
2019-02-15T01:20:34.199Z,94.70
2019-02-15T01:23:11.426Z,94.70
2019-02-15T01:25:43.160Z,94.80
2019-02-15T01:28:44.513Z,94.60
2019-02-15T01:31:18.164Z,94.80
2019-02-15T01:34:27.005Z,94.50
2019-02-15T01:37:03.641Z,94.50
2019-02-15T01:40:05.141Z,94.40
2019-02-15T01:42:58.696Z,94.50
2019-02-15T01:45:33.260Z,94.50
2019-02-15T01:48:14.262Z,94.50
2019-02-15T01:50:44.394Z,94.50
2019-02-15T01:53:25.174Z,94.50
2019-02-15T01:55:55.291Z,94.50
2019-02-15T01:58:25.416Z,94.50
2019-02-15T02:00:58.032Z,94.50
2019-02-15T02:03:31.519Z,94.70
2019-02-15T02:06:18.077Z,95.10
2019-02-15T02:08:48.205Z,94.60
2019-02-15T02:11:19.305Z,94.60
2019-02-15T02:13:50.969Z,94.70
2019-02-15T02:16:21.115Z,94.70
2019-02-15T02:18:51.177Z,94.90
2019-02-15T02:21:28.868Z,94.90
2019-02-15T02:24:06.590Z,95.10
2019-02-15T02:26:40.188Z,95.00
2019-02-15T02:29:18.673Z,95.20
2019-02-15T02:32:01.969Z,95.10
2019-02-15T02:34:38.343Z,95.20
2019-02-15T02:37:13.602Z,95.30
2019-02-15T02:39:56.148Z,95.20
2019-02-15T02:42:33.042Z,95.10
2019-02-15T02:45:03.329Z,94.90
2019-02-15T02:47:33.418Z,94.90
2019-02-15T02:50:09.794Z,95.00
2019-02-15T02:52:43.397Z,95.00
2019-02-15T02:55:12.725Z,95.30
2019-02-15T02:57:49.925Z,95.00
2019-02-15T03:00:33.578Z,95.00
2019-02-15T03:03:15.303Z,95.60
2019-02-15T03:05:45.496Z,95.30
2019-02-15T03:08:21.697Z,95.00
2019-02-15T03:10:51.824Z,95.10
2019-02-15T03:13:21.931Z,95.00
2019-02-15T03:15:58.227Z,94.90
2019-02-15T03:18:29.924Z,94.90
2019-02-15T03:21:01.046Z,94.90
2019-02-15T03:23:31.170Z,94.90
2019-02-15T03:26:01.347Z,94.90
2019-02-15T03:28:41.865Z,94.80
2019-02-15T03:31:12.052Z,94.80
2019-02-15T03:39:41.059Z,94.70
2019-02-15T03:42:12.752Z,94.80
2019-02-15T03:44:42.920Z,94.80
2019-02-15T03:47:14.781Z,94.80
2019-02-15T03:49:50.899Z,94.80
2019-02-15T03:52:21.160Z,94.80
2019-02-15T03:54:51.273Z,94.80
2019-02-15T03:57:21.399Z,94.80
2019-02-15T03:59:53.023Z,94.80
2019-02-15T04:02:23.173Z,94.90
2019-02-15T04:04:53.278Z,94.80
2019-02-15T04:07:38.583Z,94.80
2019-02-15T04:10:09.371Z,94.80
2019-02-15T04:12:39.509Z,94.80
2019-02-15T04:15:11.158Z,94.90
2019-02-15T04:17:51.599Z,94.80
2019-02-15T04:20:31.794Z,94.90
2019-02-15T04:23:01.880Z,94.90
2019-02-15T04:25:33.565Z,95.10
2019-02-15T04:28:03.651Z,95.30
2019-02-15T04:30:41.324Z,95.20
2019-02-15T04:33:25.167Z,95.40
2019-02-15T04:36:11.310Z,95.30
2019-02-15T04:38:53.432Z,95.20
2019-02-15T04:41:29.695Z,95.20
2019-02-15T04:46:01.650Z,95.30
2019-02-15T04:48:38.277Z,95.20
2019-02-15T04:51:10.912Z,95.40
2019-02-15T04:53:57.983Z,95.20
2019-02-15T04:56:39.627Z,95.20
2019-02-15T04:59:09.686Z,95.20
2019-02-15T05:01:39.803Z,94.90
2019-02-15T05:04:09.909Z,95.00
2019-02-15T05:06:42.476Z,95.10
2019-02-15T05:09:13.614Z,95.30
2019-02-15T05:11:50.926Z,95.30
2019-02-15T05:14:21.232Z,95.40
2019-02-15T05:16:55.732Z,95.40
2019-02-15T05:19:33.347Z,95.60
2019-02-15T05:22:41.432Z,95.20
2019-02-15T05:25:13.369Z,95.50
2019-02-15T05:28:01.395Z,95.40
2019-02-15T05:30:50.069Z,95.10
2019-02-15T05:33:26.328Z,95.10
2019-02-15T05:35:59.803Z,95.50
2019-02-15T05:38:29.886Z,95.20
2019-02-15T05:41:12.985Z,95.00
2019-02-15T05:43:42.726Z,95.00
2019-02-15T05:46:21.513Z,95.10
2019-02-15T05:49:06.503Z,95.30
2019-02-15T05:51:39.999Z,95.70
2019-02-15T05:54:12.759Z,95.50
2019-02-15T05:56:42.821Z,95.20
2019-02-15T05:59:12.714Z,95.20
2019-02-15T06:01:42.758Z,95.10
2019-02-15T06:04:12.841Z,95.20
2019-02-15T06:06:43.949Z,95.40
2019-02-15T06:09:13.973Z,95.30
2019-02-15T06:11:44.010Z,95.50
2019-02-15T06:14:14.102Z,95.50
2019-02-15T06:16:44.407Z,95.50
2019-02-15T06:19:14.320Z,95.20
2019-02-15T06:21:44.337Z,94.90
2019-02-15T06:24:14.468Z,94.80
2019-02-15T06:26:44.452Z,94.90
2019-02-15T06:29:14.521Z,94.70
2019-02-15T06:31:44.484Z,94.50
2019-02-15T06:34:15.182Z,94.60
2019-02-15T06:36:45.239Z,94.70
2019-02-15T06:39:15.269Z,95.10
2019-02-15T06:41:45.326Z,94.80
2019-02-15T06:44:15.994Z,94.60
2019-02-15T06:46:46.107Z,94.40
2019-02-15T06:49:16.041Z,94.30
2019-02-15T06:51:46.176Z,94.20
2019-02-15T06:54:16.188Z,94.10
2019-02-15T06:56:46.340Z,94.00
2019-02-15T06:59:30.552Z,93.90
2019-02-15T07:02:02.204Z,93.80
2019-02-15T07:04:47.320Z,93.70
2019-02-15T07:07:17.357Z,94.00
2019-02-15T07:09:47.372Z,93.70
2019-02-15T07:12:17.445Z,93.90
2019-02-15T07:14:53.616Z,93.90
2019-02-15T07:17:30.768Z,93.80
2019-02-15T07:20:00.784Z,93.50
2019-02-15T07:22:30.905Z,93.40
2019-02-15T07:25:00.861Z,93.50
2019-02-15T07:27:31.908Z,93.60
2019-02-15T07:30:02.011Z,93.60
2019-02-15T07:32:32.071Z,93.80
2019-02-15T07:35:02.043Z,92.70
2019-02-15T07:37:32.078Z,92.50
2019-02-15T07:40:02.161Z,92.00
2019-02-15T07:42:32.245Z,91.70
2019-02-15T07:45:02.211Z,91.40
2019-02-15T07:47:32.200Z,91.20
2019-02-15T07:50:02.365Z,91.10
2019-02-15T07:52:32.566Z,91.30
2019-02-15T07:55:02.695Z,91.70
2019-02-15T07:57:33.991Z,91.60
2019-02-15T08:00:09.467Z,91.20
2019-02-15T08:02:39.567Z,91.40
2019-02-15T08:05:10.173Z,91.00
2019-02-15T08:07:40.291Z,90.90
2019-02-15T08:10:11.319Z,90.70
2019-02-15T08:12:41.277Z,90.90
2019-02-15T08:15:12.243Z,90.40
2019-02-15T08:17:42.227Z,90.70
2019-02-15T08:20:12.315Z,90.20
2019-02-15T08:22:42.308Z,90.10
2019-02-15T08:25:12.472Z,89.70
2019-02-15T08:27:42.425Z,90.20
2019-02-15T08:30:12.445Z,88.40
2019-02-15T08:32:42.443Z,88.30
2019-02-15T08:35:12.390Z,88.20
2019-02-15T08:37:42.448Z,87.00
2019-02-15T08:40:12.511Z,85.80
2019-02-15T08:42:43.587Z,84.90
2019-02-15T08:45:13.652Z,84.80
2019-02-15T08:47:43.586Z,84.80
2019-02-15T08:50:13.635Z,83.20
2019-02-15T08:52:43.639Z,84.00
2019-02-15T08:55:13.693Z,83.40
2019-02-15T08:57:43.715Z,82.70
2019-02-15T09:00:13.986Z,83.50
2019-02-15T09:02:43.928Z,82.60
2019-02-15T09:05:13.901Z,82.60
2019-02-15T09:07:43.843Z,82.50
2019-02-15T09:10:14.101Z,81.50
2019-02-15T09:12:44.158Z,80.70
2019-02-15T09:15:19.692Z,80.40
2019-02-15T09:17:49.713Z,80.70
2019-02-15T09:20:19.829Z,80.40
2019-02-15T09:22:50.048Z,80.00
2019-02-15T09:25:20.302Z,79.40
2019-02-15T09:28:09.234Z,77.00
2019-02-15T09:30:39.457Z,77.00
2019-02-15T09:33:09.495Z,76.60
2019-02-15T09:35:40.737Z,76.70
2019-02-15T09:38:10.666Z,78.50
2019-02-15T09:40:40.951Z,75.90
2019-02-15T09:43:10.947Z,76.70
2019-02-15T09:45:42.531Z,76.60
2019-02-15T09:48:12.678Z,76.30
2019-02-15T09:50:42.765Z,75.00
2019-02-15T09:53:12.908Z,75.90
2019-02-15T09:55:42.931Z,74.90
2019-02-15T09:58:13.150Z,74.00
2019-02-15T10:00:43.341Z,73.70
2019-02-15T10:03:13.458Z,73.90
2019-02-15T10:05:43.781Z,74.50
2019-02-15T10:08:13.833Z,75.00
2019-02-15T10:10:44.167Z,73.40
2019-02-15T10:13:14.171Z,73.40
2019-02-15T10:15:44.943Z,72.80
2019-02-15T10:18:14.993Z,72.10
2019-02-15T10:20:45.283Z,73.00
2019-02-15T10:23:15.343Z,70.90
2019-02-15T10:25:45.735Z,71.30
2019-02-15T10:28:15.773Z,72.00
2019-02-15T10:30:45.785Z,68.80
2019-02-15T10:33:15.931Z,67.40
2019-02-15T10:35:47.636Z,67.40
2019-02-15T10:38:17.761Z,64.90
2019-02-15T10:40:48.057Z,64.40
2019-02-15T10:43:18.319Z,65.10
2019-02-15T10:45:48.325Z,64.30
2019-02-15T10:48:18.535Z,62.90
2019-02-15T10:50:48.561Z,62.50
2019-02-15T10:53:18.677Z,64.40
2019-02-15T10:55:48.934Z,62.70
2019-02-15T10:58:18.897Z,63.40
2019-02-15T11:00:48.867Z,63.10
2019-02-15T11:03:18.945Z,65.30
2019-02-15T11:05:48.923Z,65.10
2019-02-15T11:08:19.061Z,64.80
2019-02-15T11:10:49.071Z,64.40
2019-02-15T11:13:19.286Z,64.50
2019-02-15T11:15:49.555Z,65.30
2019-02-15T11:18:19.680Z,64.90
2019-02-15T11:20:49.981Z,62.20
2019-02-15T11:23:20.069Z,61.40
2019-02-15T11:25:51.869Z,60.40
2019-02-15T11:28:21.993Z,59.70
2019-02-15T11:30:52.147Z,60.10
2019-02-15T11:33:22.317Z,61.00
2019-02-15T11:35:52.348Z,59.50
2019-02-15T11:38:22.373Z,59.00
2019-02-15T11:40:52.488Z,59.50
2019-02-15T11:43:22.577Z,58.20
2019-02-15T11:45:52.694Z,58.00
2019-02-15T11:48:22.797Z,58.00
2019-02-15T11:50:52.931Z,57.80
2019-02-15T11:53:22.979Z,57.60
2019-02-15T11:55:52.902Z,58.00
2019-02-15T11:58:22.968Z,57.00
2019-02-15T12:00:53.175Z,57.00
2019-02-15T12:03:23.272Z,56.90
2019-02-15T12:05:53.322Z,56.30
2019-02-15T12:08:23.345Z,57.30
2019-02-15T12:10:53.469Z,56.60
2019-02-15T12:13:23.599Z,56.50
2019-02-15T12:15:53.748Z,56.20
2019-02-15T12:18:23.831Z,55.50
2019-02-15T12:20:54.261Z,53.30
2019-02-15T12:23:24.273Z,53.80
2019-02-15T12:25:54.402Z,53.50
2019-02-15T12:28:24.353Z,53.90
2019-02-15T12:30:54.417Z,53.80
2019-02-15T12:33:24.439Z,54.20
2019-02-15T12:35:54.488Z,54.70
2019-02-15T12:38:24.503Z,52.90
2019-02-15T12:40:54.650Z,53.40
2019-02-15T12:43:24.811Z,54.10
2019-02-15T12:45:55.187Z,53.40
2019-02-15T12:48:25.133Z,53.50
2019-02-15T12:51:01.357Z,53.80
2019-02-15T12:53:31.282Z,52.50
2019-02-15T12:56:01.400Z,53.00
2019-02-15T12:58:31.486Z,53.20
2019-02-15T13:01:01.754Z,52.70
2019-02-15T13:03:31.884Z,53.30
2019-02-15T13:06:03.653Z,52.90
2019-02-15T13:08:33.724Z,52.20
2019-02-15T13:11:03.884Z,52.30
2019-02-15T13:13:33.940Z,52.80
2019-02-15T13:16:06.951Z,52.70
2019-02-15T13:18:36.970Z,51.80
2019-02-15T13:21:06.970Z,52.50
2019-02-15T13:23:37.120Z,53.00
2019-02-15T13:26:08.850Z,52.20
2019-02-15T13:28:39.113Z,52.00
2019-02-15T13:31:09.127Z,51.40
2019-02-15T13:33:39.255Z,52.20
2019-02-15T13:36:09.297Z,51.60
2019-02-15T13:38:39.424Z,52.10
2019-02-15T13:41:09.305Z,51.80
2019-02-15T13:43:39.366Z,52.20
2019-02-15T13:46:09.594Z,52.40
2019-02-15T13:48:39.630Z,52.70
2019-02-15T13:51:09.581Z,52.40
2019-02-15T13:53:39.626Z,53.40
2019-02-15T13:56:09.678Z,53.10
2019-02-15T13:58:39.722Z,52.40
2019-02-15T14:01:09.914Z,52.80
2019-02-15T14:03:40.080Z,52.60
2019-02-15T14:06:10.156Z,52.70
2019-02-15T14:08:40.136Z,51.70
2019-02-15T14:11:10.170Z,51.30
2019-02-15T14:13:40.236Z,51.50
2019-02-15T14:16:11.252Z,51.90
2019-02-15T14:18:41.412Z,51.30
2019-02-15T14:21:11.362Z,51.50
2019-02-15T14:23:41.580Z,51.40
2019-02-15T14:26:11.618Z,51.50
2019-02-15T14:28:41.667Z,51.80
2019-02-15T14:31:11.640Z,51.90
2019-02-15T14:33:41.848Z,51.60
2019-02-15T14:36:11.785Z,52.60
2019-02-15T14:38:41.860Z,51.80
2019-02-15T14:41:11.866Z,52.00
2019-02-15T14:43:41.968Z,52.60
2019-02-15T14:46:12.097Z,52.70
2019-02-15T14:48:42.112Z,52.70
2019-02-15T14:51:12.232Z,52.80
2019-02-15T14:53:42.270Z,53.00
2019-02-15T14:56:13.725Z,53.10
2019-02-15T14:58:43.748Z,53.70
2019-02-15T15:01:13.887Z,53.40
2019-02-15T15:03:44.002Z,53.10
2019-02-15T15:06:14.128Z,53.10
2019-02-15T15:08:44.196Z,53.10
2019-02-15T15:11:14.317Z,52.80
2019-02-15T15:13:44.210Z,53.00
2019-02-15T15:16:15.964Z,53.20
2019-02-15T15:18:46.035Z,54.00
2019-02-15T15:21:16.132Z,53.30
2019-02-15T15:23:46.342Z,53.30
2019-02-15T15:26:16.510Z,53.70
2019-02-15T15:28:46.565Z,53.50
2019-02-15T15:31:16.616Z,53.90
2019-02-15T15:33:46.698Z,54.10
2019-02-15T15:36:18.287Z,54.40
2019-02-15T15:38:48.487Z,54.30
2019-02-15T15:41:18.496Z,54.50
2019-02-15T15:43:48.603Z,54.60
2019-02-15T15:46:18.792Z,54.50
2019-02-15T15:48:48.821Z,54.80
2019-02-15T15:51:18.909Z,54.80
2019-02-15T15:53:48.913Z,55.30
2019-02-15T15:56:18.965Z,55.60
2019-02-15T15:58:48.991Z,55.80
2019-02-15T16:01:19.041Z,56.20
2019-02-15T16:03:49.117Z,56.70
2019-02-15T16:06:24.401Z,57.30
2019-02-15T16:08:50.861Z,57.80
2019-02-15T16:11:20.943Z,58.10
2019-02-15T16:13:50.921Z,58.60
2019-02-15T16:16:21.105Z,59.00
2019-02-15T16:18:51.140Z,59.20
2019-02-15T16:21:22.073Z,59.50
2019-02-15T16:23:54.985Z,60.00
2019-02-15T16:26:25.085Z,60.10
2019-02-15T16:28:55.220Z,60.60
2019-02-15T16:31:25.402Z,61.00
2019-02-15T16:33:55.565Z,61.30
2019-02-15T16:36:25.656Z,61.90
2019-02-15T16:38:55.781Z,62.50
2019-02-15T16:41:25.860Z,63.10
2019-02-15T16:43:55.992Z,63.80
2019-02-15T16:46:26.001Z,63.70
2019-02-15T16:48:56.057Z,64.00
2019-02-15T16:51:26.139Z,64.30
2019-02-15T16:53:56.273Z,64.80
2019-02-15T16:56:26.346Z,65.20
2019-02-15T16:58:57.335Z,65.90
2019-02-15T17:01:27.415Z,66.50
2019-02-15T17:03:57.509Z,66.90
2019-02-15T17:06:27.727Z,67.40
2019-02-15T17:08:57.897Z,67.90
2019-02-15T17:11:27.917Z,68.40
2019-02-15T17:13:57.973Z,68.80
2019-02-15T17:16:29.056Z,69.30
2019-02-15T17:18:59.199Z,70.00
2019-02-15T17:21:29.312Z,70.10
2019-02-15T17:23:59.484Z,70.20
2019-02-15T17:26:29.497Z,70.60
2019-02-15T17:28:59.673Z,70.80
2019-02-15T17:31:29.683Z,71.10
2019-02-15T17:33:59.749Z,71.90
2019-02-15T17:36:29.768Z,72.10
2019-02-15T17:38:59.836Z,73.10
2019-02-15T17:41:29.852Z,73.20
2019-02-15T17:43:59.971Z,73.60
2019-02-15T17:46:30.087Z,73.90
2019-02-15T17:49:01.027Z,74.40
2019-02-15T17:51:31.524Z,74.70
2019-02-15T17:54:01.663Z,74.70
2019-02-15T17:56:31.707Z,74.70
2019-02-15T17:59:01.815Z,74.90
2019-02-15T18:01:32.708Z,75.40
2019-02-15T18:04:02.872Z,76.10
2019-02-15T18:06:32.905Z,75.90
2019-02-15T18:09:03.085Z,76.80
2019-02-15T18:11:34.746Z,75.70
2019-02-15T18:14:04.816Z,75.70
2019-02-15T18:16:35.922Z,75.80
2019-02-15T18:19:10.013Z,75.50
2019-02-15T18:21:37.783Z,75.00
2019-02-15T18:24:07.835Z,75.90
2019-02-15T18:26:37.942Z,75.10
2019-02-15T18:29:08.061Z,75.30
2019-02-15T18:31:38.143Z,75.30
2019-02-15T18:34:08.283Z,75.30
2019-02-15T18:36:38.358Z,75.10
2019-02-15T18:39:08.828Z,75.20
2019-02-15T18:41:38.922Z,75.30
2019-02-15T18:44:09.948Z,75.30
2019-02-15T18:46:40.035Z,75.40
2019-02-15T18:49:18.967Z,75.80
2019-02-15T18:51:41.876Z,75.90
2019-02-15T18:54:11.864Z,75.80
2019-02-15T18:56:41.984Z,76.30
2019-02-15T18:59:12.096Z,76.00
2019-02-15T19:01:42.116Z,75.80
2019-02-15T19:04:12.205Z,75.70
2019-02-15T19:06:42.317Z,75.50
2019-02-15T19:09:12.403Z,75.40
2019-02-15T19:11:42.543Z,75.30
2019-02-15T19:14:12.604Z,75.40
2019-02-15T19:16:42.679Z,75.10
2019-02-15T19:19:12.851Z,75.60
2019-02-15T19:21:42.893Z,75.90
2019-02-15T19:24:12.835Z,76.00
2019-02-15T19:26:42.964Z,76.00
2019-02-15T19:29:12.980Z,75.70
2019-02-15T19:31:42.956Z,76.00
2019-02-15T19:34:12.898Z,75.50
2019-02-15T19:36:43.011Z,75.50
2019-02-15T19:39:13.034Z,75.20
2019-02-15T19:41:43.115Z,75.00
2019-02-15T19:44:13.150Z,74.70
2019-02-15T19:46:43.068Z,75.10
2019-02-15T19:49:13.213Z,74.40
2019-02-15T19:51:43.299Z,74.50
2019-02-15T19:54:13.346Z,74.40
2019-02-15T19:56:43.292Z,74.60
2019-02-15T19:59:13.411Z,74.60
2019-02-15T20:01:45.032Z,74.20
2019-02-15T20:04:15.169Z,74.20
2019-02-15T20:06:45.178Z,74.10
2019-02-15T20:09:15.280Z,73.80
2019-02-15T20:11:45.559Z,73.80
2019-02-15T20:14:15.668Z,73.50
2019-02-15T20:16:47.471Z,72.80
2019-02-15T20:19:18.077Z,72.60
2019-02-15T20:21:51.780Z,72.20
2019-02-15T20:24:21.094Z,72.50
2019-02-15T20:26:50.964Z,72.30
2019-02-15T20:29:21.012Z,72.30
2019-02-15T20:31:51.108Z,72.20
2019-02-15T20:34:21.228Z,72.10
2019-02-15T20:36:51.378Z,71.80
2019-02-15T20:39:22.536Z,71.90
2019-02-15T20:41:52.621Z,72.10
2019-02-15T20:44:22.720Z,72.40
2019-02-15T20:46:52.833Z,72.40
2019-02-15T20:49:24.010Z,72.50
2019-02-15T20:51:54.083Z,72.60
2019-02-15T20:54:24.206Z,72.80
2019-02-15T20:56:54.308Z,73.00
2019-02-15T20:59:24.418Z,73.00
2019-02-15T21:01:54.492Z,73.00
2019-02-15T21:04:24.617Z,72.70
2019-02-15T21:06:54.649Z,72.70
2019-02-15T21:09:24.684Z,73.10
2019-02-15T21:11:54.786Z,73.30
2019-02-15T21:14:25.946Z,73.40
2019-02-15T21:16:56.088Z,73.40
2019-02-15T21:19:27.113Z,73.30
2019-02-15T21:21:57.182Z,73.40
2019-02-15T21:24:46.079Z,73.70
2019-02-15T21:28:02.816Z,73.80
2019-02-15T21:44:17.101Z,74.60
2019-02-15T21:46:47.105Z,74.80
2019-02-15T21:49:17.192Z,74.60
2019-02-15T21:51:47.342Z,74.60
2019-02-15T21:54:57.718Z,75.10
2019-02-15T22:12:36.083Z,75.40
2019-02-15T22:15:11.330Z,76.10
2019-02-15T22:17:41.711Z,76.20
2019-02-15T22:20:26.007Z,76.20
2019-02-15T22:22:48.926Z,76.10
2019-02-15T22:25:19.117Z,75.80
2019-02-15T22:27:49.095Z,75.70
2019-02-15T22:30:20.097Z,75.90
2019-02-15T22:32:50.298Z,75.90
2019-02-15T22:35:20.307Z,76.10
2019-02-15T22:37:50.369Z,76.40
2019-02-15T22:40:32.051Z,76.60
2019-02-15T22:43:08.104Z,76.50
2019-02-15T22:45:38.270Z,76.40
2019-02-15T22:48:08.363Z,76.70
2019-02-15T22:50:38.486Z,76.40
2019-02-15T22:53:08.532Z,76.70
2019-02-15T22:55:38.614Z,77.50
2019-02-15T22:58:08.704Z,77.30
2019-02-15T23:00:49.437Z,77.20
2019-02-15T23:03:22.529Z,76.80
2019-02-15T23:05:52.647Z,76.80
2019-02-15T23:08:22.768Z,76.70
2019-02-15T23:10:52.874Z,77.00
2019-02-15T23:13:22.882Z,77.20
2019-02-15T23:15:53.960Z,77.00
2019-02-15T23:18:23.988Z,77.80
2019-02-15T23:20:54.161Z,78.10
2019-02-15T23:23:24.220Z,78.00
2019-02-15T23:25:54.268Z,77.80
2019-02-15T23:28:24.391Z,77.50
2019-02-15T23:30:54.516Z,77.20
2019-02-15T23:33:24.556Z,76.80
2019-02-15T23:35:54.580Z,77.00
2019-02-15T23:38:24.629Z,77.30
2019-02-15T23:40:54.648Z,78.00
2019-02-15T23:43:24.698Z,78.40
2019-02-15T23:45:54.680Z,77.70
2019-02-15T23:48:24.791Z,77.50
2019-02-15T23:50:55.346Z,77.00
2019-02-15T23:53:26.482Z,76.60
2019-02-15T23:55:56.436Z,76.80
2019-02-15T23:58:26.630Z,76.80
